createdAt,value
2022-08-18T00:02:00.433Z,41.67
2022-08-18T00:04:36.631Z,41.67
2022-08-18T00:07:19.240Z,42.88
2022-08-18T00:09:48.019Z,41.65
2022-08-18T00:12:41.629Z,41.64
2022-08-18T00:15:13.442Z,41.25
2022-08-18T00:17:41.380Z,41.52
2022-08-18T00:20:14.342Z,41.63
2022-08-18T00:22:41.940Z,41.75
2022-08-18T00:25:11.577Z,41.80
2022-08-18T00:27:39.903Z,42.49
2022-08-18T00:30:10.674Z,42.01
2022-08-18T00:32:41.600Z,42.34
2022-08-18T00:35:16.023Z,42.21
2022-08-18T00:37:44.677Z,42.67
2022-08-18T00:40:17.282Z,42.69
2022-08-18T00:42:48.736Z,43.48
2022-08-18T00:45:27.267Z,42.63
2022-08-18T00:47:55.488Z,43.13
2022-08-18T00:50:35.241Z,43.39
2022-08-18T00:53:06.000Z,43.10
2022-08-18T00:55:33.876Z,43.69
2022-08-18T00:58:10.080Z,44.32
2022-08-18T01:00:38.454Z,44.65
2022-08-18T01:03:11.261Z,45.21
2022-08-18T01:05:43.806Z,45.67
2022-08-18T01:08:16.466Z,46.62
2022-08-18T01:10:46.713Z,47.07
2022-08-18T01:13:14.184Z,47.73
2022-08-18T01:15:41.847Z,48.87
2022-08-18T01:18:30.289Z,49.08
2022-08-18T01:21:38.360Z,49.58
2022-08-18T01:24:08.613Z,49.95
2022-08-18T01:26:38.150Z,50.39
2022-08-18T01:29:18.970Z,50.29
2022-08-18T01:31:56.753Z,50.24
2022-08-18T01:34:28.488Z,50.39
2022-08-18T01:36:56.604Z,50.51
2022-08-18T01:41:21.350Z,50.51
2022-08-18T01:42:13.536Z,49.61
2022-08-18T01:44:41.865Z,48.63
2022-08-18T01:47:11.231Z,49.20
2022-08-18T01:49:41.968Z,49.25
2022-08-18T01:52:11.559Z,50.96
2022-08-18T01:54:41.123Z,50.86
2022-08-18T01:57:13.490Z,49.88
2022-08-18T01:59:42.639Z,48.46
2022-08-18T02:02:18.593Z,47.06
2022-08-18T02:04:47.550Z,46.72
2022-08-18T02:07:15.210Z,46.48
2022-08-18T02:09:43.823Z,46.71
2022-08-18T02:12:13.271Z,46.83
2022-08-18T02:14:40.837Z,47.57
2022-08-18T02:17:10.213Z,47.91
2022-08-18T02:19:44.059Z,49.15
2022-08-18T02:22:15.397Z,49.43
2022-08-18T02:24:43.559Z,48.89
2022-08-18T02:27:12.358Z,48.17
2022-08-18T02:29:40.202Z,47.58
2022-08-18T02:32:08.814Z,48.35
2022-08-18T02:34:36.849Z,47.53
2022-08-18T02:37:04.565Z,47.67
2022-08-18T02:39:35.003Z,48.16
2022-08-18T02:42:02.578Z,48.93
2022-08-18T02:44:30.052Z,48.70
2022-08-18T02:46:58.355Z,48.77
2022-08-18T02:49:25.941Z,49.11
2022-08-18T02:51:54.699Z,48.94
2022-08-18T02:54:23.660Z,48.96
2022-08-18T02:56:52.626Z,49.82
2022-08-18T02:59:24.315Z,50.44
2022-08-18T03:01:54.612Z,50.86
2022-08-18T03:04:29.414Z,51.45
2022-08-18T03:07:00.802Z,51.70
2022-08-18T03:09:29.596Z,52.17
2022-08-18T03:11:57.323Z,51.61
2022-08-18T03:14:25.572Z,52.37
2022-08-18T03:16:54.786Z,52.34
2022-08-18T03:19:24.531Z,53.26
2022-08-18T03:21:52.813Z,52.70
2022-08-18T03:24:22.882Z,52.80
2022-08-18T03:26:53.000Z,53.39
2022-08-18T03:29:21.509Z,52.51
2022-08-18T03:31:49.294Z,53.41
2022-08-18T03:34:19.978Z,53.54
2022-08-18T03:36:50.421Z,53.31
2022-08-18T03:39:19.172Z,53.71
2022-08-18T03:41:58.107Z,53.48
2022-08-18T03:44:30.906Z,54.06
2022-08-18T03:46:58.675Z,53.33
2022-08-18T03:49:27.506Z,54.71
2022-08-18T03:51:55.686Z,54.08
2022-08-18T03:54:23.397Z,53.89
2022-08-18T03:56:50.897Z,53.02
2022-08-18T03:59:21.170Z,53.38
2022-08-18T04:01:50.435Z,53.87
2022-08-18T04:04:20.701Z,53.92
2022-08-18T04:06:51.986Z,54.56
2022-08-18T04:09:20.441Z,54.72
2022-08-18T04:11:47.910Z,53.66
2022-08-18T04:14:20.063Z,54.35
2022-08-18T04:16:49.136Z,54.54
2022-08-18T04:19:26.279Z,55.19
2022-08-18T04:21:57.525Z,55.52
2022-08-18T04:24:28.156Z,55.80
2022-08-18T04:26:58.320Z,55.86
2022-08-18T04:29:27.073Z,56.01
2022-08-18T04:31:55.090Z,56.46
2022-08-18T04:34:23.246Z,56.96
2022-08-18T04:36:54.207Z,57.36
2022-08-18T04:39:23.187Z,57.37
2022-08-18T04:41:51.077Z,57.73
2022-08-18T04:44:19.102Z,57.53
2022-08-18T04:46:49.549Z,57.38
2022-08-18T04:49:18.811Z,56.93
2022-08-18T04:52:37.752Z,57.22
2022-08-18T04:54:55.299Z,56.84
2022-08-18T04:57:23.159Z,57.04
2022-08-18T04:59:52.426Z,56.75
2022-08-18T05:02:21.797Z,56.51
2022-08-18T05:04:49.504Z,56.06
2022-08-18T05:07:20.485Z,55.69
2022-08-18T05:09:48.353Z,55.64
2022-08-18T05:12:16.492Z,55.83
2022-08-18T05:14:45.289Z,55.13
2022-08-18T05:17:15.491Z,54.85
2022-08-18T05:19:44.579Z,54.32
2022-08-18T05:22:17.814Z,54.13
2022-08-18T05:24:46.737Z,53.81
2022-08-18T05:27:14.546Z,53.64
2022-08-18T05:29:46.068Z,53.25
2022-08-18T05:32:38.238Z,53.21
2022-08-18T05:35:07.740Z,53.41
2022-08-18T05:37:47.572Z,53.02
2022-08-18T05:40:15.735Z,52.87
2022-08-18T05:42:43.745Z,52.32
2022-08-18T05:45:13.700Z,51.85
2022-08-18T05:47:41.381Z,51.97
2022-08-18T05:50:12.054Z,51.84
2022-08-18T05:52:53.694Z,51.00
2022-08-18T05:55:59.753Z,50.67
2022-08-18T05:58:33.197Z,50.59
2022-08-18T06:01:09.052Z,49.98
2022-08-18T06:03:45.199Z,50.06
2022-08-18T06:06:19.539Z,49.40
2022-08-18T06:08:53.876Z,49.13
2022-08-18T06:11:22.758Z,49.29
2022-08-18T06:13:52.373Z,49.13
2022-08-18T06:16:35.808Z,48.74
2022-08-18T06:19:16.787Z,48.32
2022-08-18T06:21:50.965Z,48.52
2022-08-18T06:24:38.575Z,48.00
2022-08-18T06:27:31.432Z,48.21
2022-08-18T06:30:08.363Z,47.64
2022-08-18T06:32:48.718Z,47.40
2022-08-18T06:35:25.060Z,47.66
2022-08-18T06:38:24.382Z,47.51
2022-08-18T06:41:03.428Z,47.22
2022-08-18T06:43:32.912Z,47.15
2022-08-18T06:46:02.256Z,47.05
2022-08-18T06:48:53.395Z,47.00
2022-08-18T06:51:23.430Z,46.52
2022-08-18T06:53:53.614Z,46.73
2022-08-18T06:56:43.686Z,46.29
2022-08-18T06:59:20.430Z,46.43
2022-08-18T07:01:52.038Z,46.04
2022-08-18T07:04:37.471Z,45.70
2022-08-18T07:07:17.728Z,45.72
2022-08-18T07:09:45.543Z,45.98
2022-08-18T07:12:21.121Z,45.46
2022-08-18T07:14:52.241Z,45.48
2022-08-18T07:17:42.491Z,45.46
2022-08-18T07:20:22.116Z,45.12
2022-08-18T07:23:01.720Z,45.05
2022-08-18T07:25:39.971Z,44.25
2022-08-18T07:28:47.701Z,44.37
2022-08-18T07:31:20.736Z,44.28
2022-08-18T07:34:25.899Z,42.74
2022-08-18T07:37:08.911Z,42.40
2022-08-18T07:39:47.513Z,42.39
2022-08-18T07:42:54.042Z,42.09
2022-08-18T07:45:31.859Z,41.55
2022-08-18T07:48:37.685Z,41.82
2022-08-18T07:51:16.565Z,41.68
2022-08-18T07:53:59.771Z,41.29
2022-08-18T07:56:39.749Z,41.08
2022-08-18T07:59:18.919Z,41.27
2022-08-18T08:01:52.491Z,41.41
2022-08-18T08:04:45.324Z,40.88
2022-08-18T08:07:24.455Z,41.69
2022-08-18T08:10:07.459Z,40.52
2022-08-18T08:13:08.391Z,39.96
2022-08-18T08:16:10.822Z,40.49
2022-08-18T08:19:49.243Z,39.67
2022-08-18T08:22:19.438Z,39.16
2022-08-18T08:24:56.081Z,38.44
2022-08-18T08:27:39.117Z,38.11
2022-08-18T08:30:10.502Z,37.90
2022-08-18T08:32:55.402Z,37.81
2022-08-18T08:35:49.113Z,38.16
2022-08-18T08:38:39.890Z,38.05
2022-08-18T08:41:16.253Z,38.14
2022-08-18T08:44:01.777Z,38.02
2022-08-18T08:46:31.634Z,38.13
2022-08-18T08:49:23.948Z,37.63
2022-08-18T08:51:58.015Z,37.17
2022-08-18T08:54:31.025Z,37.51
2022-08-18T08:57:00.602Z,37.37
2022-08-18T09:02:46.553Z,36.46
2022-08-18T09:05:36.913Z,36.51
2022-08-18T09:08:17.818Z,36.33
2022-08-18T09:10:50.275Z,36.01
2022-08-18T09:13:55.436Z,34.61
2022-08-18T09:16:27.644Z,34.65
2022-08-18T09:19:07.943Z,34.97
2022-08-18T09:21:54.157Z,34.80
2022-08-18T09:24:32.304Z,34.75
2022-08-18T09:27:02.913Z,34.13
2022-08-18T09:29:43.918Z,34.24
2022-08-18T09:32:22.934Z,33.81
2022-08-18T09:35:09.487Z,34.00
2022-08-18T09:37:45.893Z,34.17
2022-08-18T09:41:02.000Z,34.22
2022-08-18T09:43:28.288Z,33.78
2022-08-18T09:46:04.612Z,33.54
2022-08-18T09:48:42.258Z,33.60
2022-08-18T09:51:15.692Z,33.64
2022-08-18T09:53:48.224Z,34.03
2022-08-18T09:56:19.834Z,33.04
2022-08-18T09:59:02.088Z,32.88
2022-08-18T10:01:30.406Z,32.35
2022-08-18T10:04:21.594Z,32.17
2022-08-18T10:06:49.711Z,32.76
2022-08-18T10:09:36.715Z,31.91
2022-08-18T10:12:07.862Z,31.83
2022-08-18T10:15:02.592Z,31.52
2022-08-18T10:17:42.456Z,31.47
2022-08-18T10:20:27.160Z,30.96
2022-08-18T10:22:57.445Z,31.00
2022-08-18T10:25:43.219Z,31.26
2022-08-18T10:28:12.822Z,31.51
2022-08-18T10:31:06.273Z,31.11
2022-08-18T10:34:00.836Z,32.14
2022-08-18T10:36:51.863Z,31.08
2022-08-18T10:39:30.368Z,30.59
2022-08-18T10:42:34.074Z,30.74
2022-08-18T10:45:22.038Z,29.84
2022-08-18T10:48:16.628Z,30.46
2022-08-18T10:50:52.099Z,29.96
2022-08-18T10:53:50.160Z,29.47
2022-08-18T10:56:53.859Z,28.73
2022-08-18T10:59:47.787Z,29.80
2022-08-18T11:02:24.227Z,29.19
2022-08-18T11:04:58.696Z,28.72
2022-08-18T11:07:30.842Z,29.68
2022-08-18T11:13:15.107Z,28.57
2022-08-18T11:16:10.153Z,28.87
2022-08-18T11:18:44.941Z,28.07
2022-08-18T11:21:44.652Z,28.43
2022-08-18T11:24:21.225Z,28.04
2022-08-18T11:26:56.816Z,27.96
2022-08-18T11:29:32.947Z,28.71
2022-08-18T11:32:03.834Z,28.96
2022-08-18T11:35:00.959Z,27.15
2022-08-18T11:37:49.468Z,27.91
2022-08-18T11:43:21.348Z,26.92
2022-08-18T11:45:53.044Z,27.10
2022-08-18T11:48:52.039Z,27.02
2022-08-18T11:51:25.387Z,25.74
2022-08-18T11:54:00.305Z,26.00
2022-08-18T11:56:36.055Z,26.34
2022-08-18T11:59:52.563Z,26.46
2022-08-18T12:02:22.456Z,26.06
2022-08-18T12:04:54.325Z,25.42
2022-08-18T12:07:32.192Z,25.57
2022-08-18T12:13:10.924Z,25.28
2022-08-18T12:15:44.942Z,25.34
2022-08-18T12:18:26.386Z,24.75
2022-08-18T12:20:58.591Z,23.81
2022-08-18T12:23:26.381Z,24.80
2022-08-18T12:25:53.920Z,25.56
2022-08-18T12:28:22.370Z,23.92
2022-08-18T12:30:57.156Z,23.27
2022-08-18T12:33:34.095Z,23.19
2022-08-18T12:38:56.131Z,22.54
2022-08-18T12:41:24.713Z,22.47
2022-08-18T12:46:42.334Z,22.30
2022-08-18T12:49:16.337Z,22.51
2022-08-18T12:51:44.430Z,21.44
2022-08-18T12:54:12.548Z,21.19
2022-08-18T12:56:40.975Z,21.73
2022-08-18T12:59:10.116Z,22.21
2022-08-18T13:01:40.134Z,20.92
2022-08-18T13:07:00.689Z,21.78
2022-08-18T13:09:34.739Z,20.40
2022-08-18T13:12:17.265Z,20.40
2022-08-18T13:14:45.716Z,20.38
2022-08-18T13:17:32.597Z,20.42
2022-08-18T13:20:09.626Z,20.51
2022-08-18T13:22:40.262Z,19.46
2022-08-18T13:25:11.218Z,20.28
2022-08-18T13:27:45.014Z,19.38
2022-08-18T13:30:31.072Z,19.40
2022-08-18T13:33:05.564Z,19.24
2022-08-18T13:35:54.286Z,18.73
2022-08-18T13:38:27.309Z,19.21
2022-08-18T13:40:59.023Z,18.47
2022-08-18T13:43:35.884Z,19.06
2022-08-18T13:46:06.917Z,19.23
2022-08-18T13:48:37.942Z,19.37
2022-08-18T13:51:08.330Z,18.45
2022-08-18T13:53:50.423Z,19.24
2022-08-18T13:56:19.795Z,19.61
2022-08-18T13:58:53.021Z,18.93
2022-08-18T14:04:12.783Z,19.83
2022-08-18T14:06:51.166Z,19.03
2022-08-18T14:09:35.730Z,19.58
2022-08-18T14:12:07.188Z,18.71
2022-08-18T14:14:44.257Z,18.96
2022-08-18T14:17:12.144Z,18.52
2022-08-18T14:19:58.141Z,19.25
2022-08-18T14:22:44.657Z,18.76
2022-08-18T14:25:30.967Z,18.87
2022-08-18T14:27:59.211Z,18.59
2022-08-18T14:30:31.630Z,19.82
2022-08-18T14:32:59.794Z,19.79
2022-08-18T14:36:04.143Z,19.73
2022-08-18T14:38:16.113Z,19.02
2022-08-18T14:40:45.411Z,19.00
2022-08-18T14:43:14.721Z,18.85
2022-08-18T14:45:48.776Z,19.69
2022-08-18T14:48:20.364Z,19.46
2022-08-18T14:50:53.050Z,20.52
2022-08-18T14:53:22.947Z,18.94
2022-08-18T14:55:52.766Z,19.30
2022-08-18T14:58:27.780Z,18.78
2022-08-18T15:01:02.005Z,18.99
2022-08-18T15:03:36.882Z,19.29
2022-08-18T15:06:06.220Z,19.20
2022-08-18T15:08:35.979Z,17.90
2022-08-18T15:11:11.539Z,18.19
2022-08-18T15:13:45.326Z,19.24
2022-08-18T15:16:16.689Z,19.42
2022-08-18T15:18:46.642Z,18.86
2022-08-18T15:21:43.741Z,18.85
2022-08-18T15:24:29.826Z,19.18
2022-08-18T15:27:05.477Z,19.12
2022-08-18T15:29:41.318Z,19.58
2022-08-18T15:32:10.393Z,20.05
2022-08-18T15:34:45.984Z,19.72
2022-08-18T15:37:19.395Z,19.95
2022-08-18T15:39:55.904Z,20.82
2022-08-18T15:42:23.743Z,20.13
2022-08-18T15:44:53.672Z,19.82
2022-08-18T15:47:25.140Z,20.23
2022-08-18T15:49:55.108Z,20.64
2022-08-18T15:52:25.891Z,20.77
2022-08-18T15:54:58.363Z,21.06
2022-08-18T15:57:39.964Z,21.05
2022-08-18T16:00:12.116Z,20.63
2022-08-18T16:02:44.554Z,21.54
2022-08-18T16:05:17.908Z,22.59
2022-08-18T16:07:47.763Z,21.44
2022-08-18T16:10:17.485Z,23.06
2022-08-18T16:12:46.944Z,22.63
2022-08-18T16:15:19.563Z,22.66
2022-08-18T16:17:50.395Z,23.13
2022-08-18T16:20:19.181Z,22.52
2022-08-18T16:22:48.950Z,22.52
2022-08-18T16:25:18.276Z,22.54
2022-08-18T16:27:47.868Z,22.26
2022-08-18T16:30:19.352Z,22.31
2022-08-18T16:32:47.671Z,22.74
2022-08-18T16:35:15.871Z,22.61
2022-08-18T16:37:44.385Z,23.40
2022-08-18T16:40:13.407Z,23.41
2022-08-18T16:42:41.273Z,23.68
2022-08-18T16:45:09.760Z,23.54
2022-08-18T16:47:40.579Z,23.82
2022-08-18T16:50:10.612Z,23.99
2022-08-18T16:52:38.170Z,24.27
2022-08-18T16:55:07.360Z,24.13
2022-08-18T16:57:55.452Z,24.82
2022-08-18T17:00:43.429Z,24.89
2022-08-18T17:03:30.191Z,24.96
2022-08-18T17:06:01.971Z,25.50
2022-08-18T17:08:31.365Z,26.19
2022-08-18T17:10:59.080Z,26.44
2022-08-18T17:13:26.668Z,26.23
2022-08-18T17:15:54.216Z,26.30
2022-08-18T17:18:22.292Z,26.54
2022-08-18T17:20:51.932Z,26.75
2022-08-18T17:23:19.935Z,26.73
2022-08-18T17:25:48.083Z,26.69
2022-08-18T17:28:19.559Z,26.77
2022-08-18T17:30:52.234Z,26.87
2022-08-18T17:33:25.134Z,27.02
2022-08-18T17:35:56.048Z,27.73
2022-08-18T17:38:32.625Z,27.29
2022-08-18T17:41:01.661Z,27.96
2022-08-18T17:43:33.811Z,28.12
2022-08-18T17:46:04.360Z,28.41
2022-08-18T17:48:43.233Z,28.22
2022-08-18T17:51:39.588Z,27.72
2022-08-18T17:54:17.413Z,27.76
2022-08-18T17:56:55.157Z,28.08
2022-08-18T17:59:46.553Z,28.76
2022-08-18T18:02:28.864Z,29.05
2022-08-18T18:05:06.201Z,28.62
2022-08-18T18:07:52.524Z,28.69
2022-08-18T18:13:33.698Z,29.72
2022-08-18T18:16:23.367Z,29.80
2022-08-18T18:19:04.368Z,29.75
2022-08-18T18:22:00.575Z,29.95
2022-08-18T18:24:29.991Z,30.71
2022-08-18T18:26:58.373Z,30.75
2022-08-18T18:29:35.637Z,30.75
2022-08-18T18:32:26.617Z,30.39
2022-08-18T18:35:15.239Z,30.58
2022-08-18T18:37:54.573Z,31.55
2022-08-18T18:40:28.290Z,31.31
2022-08-18T18:42:57.603Z,31.36
2022-08-18T18:45:29.284Z,31.58
2022-08-18T18:48:47.403Z,31.37
2022-08-18T18:51:10.309Z,32.38
2022-08-18T18:54:09.986Z,31.80
2022-08-18T18:56:45.904Z,31.77
2022-08-18T18:59:51.785Z,32.39
2022-08-18T19:02:34.548Z,32.36
2022-08-18T19:05:14.809Z,32.73
2022-08-18T19:08:19.183Z,32.51
2022-08-18T19:11:25.463Z,32.89
2022-08-18T19:13:59.675Z,33.55
2022-08-18T19:16:54.959Z,33.85
2022-08-18T19:19:38.427Z,33.14
2022-08-18T19:22:19.064Z,34.59
2022-08-18T19:24:58.879Z,34.09
2022-08-18T19:27:36.179Z,35.03
2022-08-18T19:30:10.096Z,34.91
2022-08-18T19:32:45.030Z,34.44
2022-08-18T19:35:19.842Z,34.73
2022-08-18T19:37:57.545Z,34.99
2022-08-18T19:40:31.776Z,35.58
2022-08-18T19:43:07.442Z,35.58
2022-08-18T19:45:50.221Z,36.07
2022-08-18T19:48:34.881Z,35.60
2022-08-18T19:51:21.137Z,35.44
2022-08-18T19:54:08.920Z,35.35
2022-08-18T19:57:06.256Z,35.38
2022-08-18T19:59:40.281Z,35.70
2022-08-18T20:02:28.986Z,36.50
2022-08-18T20:05:20.545Z,37.78
2022-08-18T20:08:12.643Z,36.87
2022-08-18T20:11:12.297Z,36.86
2022-08-18T20:13:43.364Z,36.05
2022-08-18T20:16:43.333Z,36.71
2022-08-18T20:19:33.852Z,36.06
2022-08-18T20:22:04.233Z,35.80
2022-08-18T20:24:53.905Z,36.84
2022-08-18T20:27:34.180Z,36.15
2022-08-18T20:30:23.707Z,35.03
2022-08-18T20:33:07.681Z,35.53
2022-08-18T20:36:09.813Z,35.12
2022-08-18T20:38:57.916Z,35.26
2022-08-18T20:41:28.278Z,34.58
2022-08-18T20:44:04.559Z,35.19
2022-08-18T20:46:43.281Z,36.14
2022-08-18T20:49:36.447Z,35.60
2022-08-18T20:52:35.983Z,35.41
2022-08-18T20:55:24.227Z,35.42
2022-08-18T20:57:55.593Z,36.70
2022-08-18T21:00:27.307Z,35.27
2022-08-18T21:02:57.586Z,35.46
2022-08-18T21:05:34.241Z,35.90
2022-08-18T21:08:26.509Z,35.76
2022-08-18T21:10:55.656Z,35.42
2022-08-18T21:13:40.749Z,35.06
2022-08-18T21:16:14.445Z,35.17
2022-08-18T21:18:55.613Z,35.30
2022-08-18T21:21:30.641Z,35.40
2022-08-18T21:24:01.014Z,35.04
2022-08-18T21:26:30.568Z,35.14
2022-08-18T21:29:09.305Z,35.03
2022-08-18T21:31:44.946Z,35.57
2022-08-18T21:34:18.588Z,35.20
2022-08-18T21:36:54.744Z,35.21
2022-08-18T21:39:23.808Z,35.38
2022-08-18T21:41:55.922Z,35.33
2022-08-18T21:44:33.421Z,35.27
2022-08-18T21:47:07.301Z,35.57
2022-08-18T21:49:34.823Z,35.41
2022-08-18T21:52:02.805Z,35.54
2022-08-18T21:54:34.418Z,35.88
2022-08-18T21:57:27.486Z,35.82
2022-08-18T22:00:23.841Z,35.53
2022-08-18T22:03:10.920Z,36.26
2022-08-18T22:05:58.711Z,36.31
2022-08-18T22:08:31.998Z,36.64
2022-08-18T22:12:01.512Z,36.51
2022-08-18T22:14:23.877Z,36.64
2022-08-18T22:17:48.254Z,37.15
2022-08-18T22:20:40.461Z,37.59
2022-08-18T22:23:32.574Z,37.60
2022-08-18T22:26:21.417Z,37.72
2022-08-18T22:28:59.881Z,37.63
2022-08-18T22:31:32.957Z,37.64
2022-08-18T22:34:06.363Z,37.98
2022-08-18T22:36:40.997Z,37.89
2022-08-18T22:39:11.557Z,38.28
2022-08-18T22:41:40.939Z,38.54
2022-08-18T22:44:08.628Z,38.50
2022-08-18T22:46:37.019Z,39.18
2022-08-18T22:49:05.110Z,38.37
2022-08-18T22:51:36.275Z,38.70
2022-08-18T22:54:09.847Z,39.03
2022-08-18T22:56:38.613Z,39.58
2022-08-18T22:59:13.714Z,39.27
2022-08-18T23:01:46.382Z,39.04
2022-08-18T23:04:16.012Z,39.32
2022-08-18T23:06:51.635Z,39.44
2022-08-18T23:09:21.157Z,39.77
2022-08-18T23:11:48.886Z,39.45
2022-08-18T23:14:16.605Z,39.76
2022-08-18T23:16:47.249Z,39.70
2022-08-18T23:19:16.424Z,39.32
2022-08-18T23:21:44.515Z,39.61
2022-08-18T23:24:14.332Z,39.80
2022-08-18T23:26:42.557Z,39.40
2022-08-18T23:29:11.735Z,39.38
2022-08-18T23:31:41.022Z,39.60
2022-08-18T23:34:10.418Z,39.65
2022-08-18T23:36:41.321Z,39.46
2022-08-18T23:39:11.525Z,39.57
2022-08-18T23:41:39.106Z,39.45
2022-08-18T23:44:06.795Z,39.65
2022-08-18T23:46:35.667Z,39.45
2022-08-18T23:49:04.666Z,39.42
2022-08-18T23:51:44.174Z,39.69
2022-08-18T23:54:14.765Z,39.55
2022-08-18T23:56:42.532Z,39.60
2022-08-18T23:59:11.103Z,39.52
